createdAt,value
2023-03-21T00:03:37.425Z,8.88
2023-03-21T00:07:35.490Z,8.88
2023-03-21T00:11:33.472Z,8.86
2023-03-21T00:15:42.550Z,8.83
2023-03-21T00:19:49.949Z,8.81
2023-03-21T00:23:49.628Z,8.78
2023-03-21T00:28:05.293Z,8.75
2023-03-21T00:32:05.390Z,8.73
2023-03-21T00:36:05.959Z,8.70
2023-03-21T00:40:05.563Z,8.69
2023-03-21T00:44:05.334Z,8.67
2023-03-21T00:48:03.541Z,8.65
2023-03-21T00:52:17.110Z,8.63
2023-03-21T00:56:18.412Z,8.61
2023-03-21T01:00:17.316Z,8.60
2023-03-21T01:04:21.360Z,8.59
2023-03-21T01:08:25.357Z,8.57
2023-03-21T01:12:26.299Z,8.56
2023-03-21T01:16:24.326Z,8.55
2023-03-21T01:20:22.359Z,8.56
2023-03-21T01:24:21.268Z,8.54
2023-03-21T01:28:20.467Z,8.54
2023-03-21T01:32:18.257Z,8.53
2023-03-21T01:36:16.545Z,8.54
2023-03-21T01:40:21.474Z,8.53
2023-03-21T01:44:33.229Z,8.52
2023-03-21T01:48:31.362Z,8.47
2023-03-21T01:52:37.409Z,8.46
2023-03-21T01:56:47.223Z,8.44
2023-03-21T02:00:45.280Z,8.44
2023-03-21T02:04:57.264Z,8.43
2023-03-21T02:08:55.305Z,8.42
2023-03-21T02:12:53.228Z,8.41
2023-03-21T02:17:02.327Z,8.40
2023-03-21T02:21:30.240Z,8.40
2023-03-21T02:25:44.304Z,8.38
2023-03-21T02:30:04.187Z,8.37
2023-03-21T02:34:33.208Z,8.36
2023-03-21T02:38:40.195Z,8.33
2023-03-21T02:42:43.342Z,8.29
2023-03-21T02:47:02.980Z,8.24
2023-03-21T02:51:10.197Z,8.21
2023-03-21T02:55:11.141Z,8.19
2023-03-21T02:59:22.233Z,8.18
2023-03-21T03:03:33.611Z,8.16
2023-03-21T03:07:44.273Z,8.16
2023-03-21T03:11:51.163Z,8.17
2023-03-21T03:15:54.309Z,8.15
2023-03-21T03:20:15.519Z,8.14
2023-03-21T03:24:41.161Z,8.14
2023-03-21T03:28:45.106Z,8.14
2023-03-21T03:32:55.182Z,8.09
2023-03-21T03:37:03.141Z,8.08
2023-03-21T03:41:06.206Z,8.07
2023-03-21T03:45:12.092Z,8.08
2023-03-21T03:49:15.097Z,8.08
2023-03-21T03:53:22.069Z,8.08
2023-03-21T03:57:21.122Z,8.07
2023-03-21T04:01:19.051Z,8.06
2023-03-21T04:05:17.115Z,8.04
2023-03-21T04:09:21.928Z,8.03
2023-03-21T04:13:21.190Z,8.01
2023-03-21T04:17:34.053Z,8.01
2023-03-21T04:21:34.127Z,7.99
2023-03-21T04:25:34.075Z,7.99
2023-03-21T04:29:32.134Z,7.99
2023-03-21T04:34:03.091Z,8.01
2023-03-21T04:38:01.164Z,8.00
2023-03-21T04:42:01.099Z,7.98
2023-03-21T04:45:59.388Z,7.97
2023-03-21T04:49:58.051Z,7.97
2023-03-21T04:53:56.055Z,7.97
2023-03-21T04:57:54.061Z,7.98
2023-03-21T05:01:52.113Z,7.98
2023-03-21T05:05:53.010Z,7.98
2023-03-21T05:09:52.144Z,7.98
2023-03-21T05:13:49.976Z,8.00
2023-03-21T05:17:48.999Z,8.03
2023-03-21T05:21:48.966Z,8.10
2023-03-21T05:25:50.025Z,8.17
2023-03-21T05:29:57.955Z,8.24
2023-03-21T05:33:58.966Z,8.32
2023-03-21T05:37:56.949Z,8.35
2023-03-21T05:41:56.968Z,8.42
2023-03-21T05:45:55.244Z,8.49
2023-03-21T05:49:54.284Z,8.56
2023-03-21T05:53:51.936Z,8.68
2023-03-21T05:57:50.020Z,8.86
2023-03-21T06:01:51.953Z,8.93
2023-03-21T06:05:49.995Z,8.94
2023-03-21T06:09:50.010Z,8.96
2023-03-21T06:13:47.981Z,8.94
2023-03-21T06:17:45.954Z,8.92
2023-03-21T06:21:44.043Z,8.88
2023-03-21T06:25:41.883Z,8.90
2023-03-21T06:29:41.951Z,8.95
2023-03-21T06:33:39.921Z,9.02
2023-03-21T06:37:38.010Z,9.12
2023-03-21T06:41:35.849Z,9.23
2023-03-21T06:45:33.872Z,9.32
2023-03-21T06:49:34.913Z,9.40
2023-03-21T06:53:36.139Z,9.40
2023-03-21T06:57:45.963Z,9.37
2023-03-21T07:01:27.760Z,9.37
2023-03-21T07:04:58.560Z,9.39
2023-03-21T07:08:25.511Z,9.45
2023-03-21T07:11:53.464Z,9.55
2023-03-21T07:15:18.978Z,9.65
2023-03-21T07:18:46.708Z,9.62
2023-03-21T07:22:10.735Z,9.55
2023-03-21T07:25:36.046Z,9.50
2023-03-21T07:29:00.398Z,9.35
2023-03-21T07:32:24.641Z,9.30
2023-03-21T07:35:48.595Z,9.39
2023-03-21T07:39:12.442Z,9.49
2023-03-21T07:42:36.524Z,9.52
2023-03-21T07:46:01.637Z,9.47
2023-03-21T07:49:26.631Z,9.46
2023-03-21T07:52:50.599Z,9.43
2023-03-21T07:56:14.566Z,9.43
2023-03-21T07:59:38.555Z,9.38
2023-03-21T08:03:03.087Z,9.30
2023-03-21T08:06:30.135Z,9.31
2023-03-21T08:09:53.981Z,9.41
2023-03-21T08:13:17.898Z,9.58
2023-03-21T08:16:41.807Z,9.72
2023-03-21T08:20:09.172Z,9.81
2023-03-21T08:23:34.619Z,9.93
2023-03-21T08:26:58.620Z,10.10
2023-03-21T08:30:29.113Z,10.18
2023-03-21T08:33:54.862Z,10.28
2023-03-21T08:37:19.364Z,10.42
2023-03-21T08:40:43.236Z,10.48
2023-03-21T08:44:07.840Z,10.53
2023-03-21T08:47:31.964Z,10.54
2023-03-21T08:50:55.826Z,10.54
2023-03-21T08:54:21.841Z,10.56
2023-03-21T08:57:46.524Z,10.56
2023-03-21T09:01:11.512Z,10.54
2023-03-21T09:04:35.653Z,10.58
2023-03-21T09:08:01.652Z,10.75
2023-03-21T09:11:25.528Z,10.93
2023-03-21T09:14:50.297Z,11.04
2023-03-21T09:18:15.222Z,10.97
2023-03-21T09:21:40.435Z,10.87
2023-03-21T09:25:08.529Z,10.65
2023-03-21T09:28:34.746Z,10.35
2023-03-21T09:31:58.688Z,10.30
2023-03-21T09:35:22.811Z,10.38
2023-03-21T09:38:48.119Z,10.32
2023-03-21T09:42:28.437Z,10.11
2023-03-21T09:45:58.448Z,9.99
2023-03-21T09:49:35.660Z,10.01
2023-03-21T09:53:05.396Z,10.09
2023-03-21T09:56:30.537Z,10.24
2023-03-21T09:59:58.953Z,10.37
2023-03-21T10:03:27.616Z,10.52
2023-03-21T10:07:05.157Z,10.70
2023-03-21T10:10:33.487Z,10.83
2023-03-21T10:14:02.116Z,10.98
2023-03-21T10:17:43.669Z,11.04
2023-03-21T10:21:08.804Z,11.08
2023-03-21T10:24:35.694Z,11.01
2023-03-21T10:28:01.895Z,10.89
2023-03-21T10:31:30.315Z,10.84
2023-03-21T10:34:58.508Z,10.85
2023-03-21T10:38:25.697Z,10.81
2023-03-21T10:41:49.672Z,10.81
2023-03-21T10:45:20.253Z,10.90
2023-03-21T10:48:47.039Z,11.06
2023-03-21T10:52:13.429Z,11.24
2023-03-21T10:55:42.087Z,11.41
2023-03-21T10:59:08.418Z,11.64
2023-03-21T11:02:36.374Z,11.86
2023-03-21T11:06:09.724Z,12.01
2023-03-21T11:09:50.032Z,12.15
2023-03-21T11:13:27.416Z,12.39
2023-03-21T11:16:52.029Z,12.78
2023-03-21T11:20:20.088Z,13.11
2023-03-21T11:23:48.264Z,13.29
2023-03-21T11:27:12.123Z,13.00
2023-03-21T11:30:36.276Z,12.53
2023-03-21T11:34:01.700Z,12.25
2023-03-21T11:37:46.218Z,12.52
2023-03-21T11:41:10.147Z,12.78
2023-03-21T11:44:42.479Z,12.96
2023-03-21T11:48:15.474Z,13.10
2023-03-21T11:51:50.019Z,13.22
2023-03-21T11:55:27.481Z,13.38
2023-03-21T11:59:07.719Z,13.48
2023-03-21T12:02:57.642Z,13.55
2023-03-21T12:06:31.514Z,13.56
2023-03-21T12:10:09.713Z,13.50
2023-03-21T12:13:48.955Z,13.42
2023-03-21T12:17:27.584Z,13.29
2023-03-21T12:20:59.874Z,13.24
2023-03-21T12:24:31.421Z,12.93
2023-03-21T12:28:31.722Z,12.53
2023-03-21T12:32:12.237Z,12.47
2023-03-21T12:35:46.208Z,12.19
2023-03-21T12:39:31.471Z,12.09
2023-03-21T12:43:23.193Z,11.74
2023-03-21T12:47:04.670Z,11.59
2023-03-21T12:50:37.541Z,11.37
2023-03-21T12:54:32.851Z,11.02
2023-03-21T12:58:12.696Z,11.01
2023-03-21T13:01:40.072Z,11.23
2023-03-21T13:05:22.270Z,11.40
2023-03-21T13:09:11.655Z,11.47
2023-03-21T13:12:59.314Z,11.11
2023-03-21T13:16:45.872Z,10.63
2023-03-21T13:20:24.407Z,10.38
2023-03-21T13:24:01.612Z,10.15
2023-03-21T13:27:25.986Z,9.96
2023-03-21T13:30:50.351Z,9.77
2023-03-21T13:34:15.770Z,9.57
2023-03-21T13:37:44.601Z,9.49
2023-03-21T13:41:10.647Z,9.51
2023-03-21T13:44:45.767Z,9.44
2023-03-21T13:48:29.195Z,9.45
2023-03-21T13:51:58.593Z,9.46
2023-03-21T13:55:26.198Z,9.47
2023-03-21T13:58:50.276Z,9.58
2023-03-21T14:02:24.410Z,9.71
2023-03-21T14:05:52.235Z,9.84
2023-03-21T14:09:39.568Z,9.94
2023-03-21T14:13:06.725Z,9.99
2023-03-21T14:16:32.401Z,9.93
2023-03-21T14:20:00.803Z,9.91
2023-03-21T14:23:27.094Z,9.79
2023-03-21T14:26:53.597Z,9.68
2023-03-21T14:30:55.469Z,9.67
2023-03-21T14:34:53.303Z,9.73
2023-03-21T14:38:54.337Z,9.83
2023-03-21T14:42:53.314Z,9.81
2023-03-21T14:46:51.442Z,9.71
2023-03-21T14:50:57.304Z,9.61
2023-03-21T14:54:57.413Z,9.65
2023-03-21T14:58:58.293Z,9.61
2023-03-21T15:02:58.332Z,9.56
2023-03-21T15:07:15.251Z,9.49
2023-03-21T15:11:21.281Z,9.56
2023-03-21T15:15:19.346Z,9.68
2023-03-21T15:19:18.367Z,9.81
2023-03-21T15:23:21.357Z,9.84
2023-03-21T15:27:22.305Z,9.85
2023-03-21T15:31:28.275Z,9.81
2023-03-21T15:35:39.656Z,9.76
2023-03-21T15:39:37.335Z,9.67
2023-03-21T15:43:35.302Z,9.61
2023-03-21T15:48:10.366Z,9.52
2023-03-21T15:52:30.215Z,9.39
2023-03-21T15:56:28.233Z,9.20
2023-03-21T16:00:32.456Z,9.13
2023-03-21T16:04:31.196Z,9.10
2023-03-21T16:08:36.206Z,9.07
2023-03-21T16:12:35.223Z,9.07
2023-03-21T16:16:39.223Z,9.07
2023-03-21T16:20:40.590Z,9.05
2023-03-21T16:24:38.172Z,9.02
2023-03-21T16:28:36.170Z,9.01
2023-03-21T16:32:34.183Z,9.01
2023-03-21T16:36:51.331Z,9.00
2023-03-21T16:40:52.282Z,8.98
2023-03-21T16:44:50.130Z,8.95
2023-03-21T16:48:48.138Z,8.90
2023-03-21T16:52:46.221Z,8.84
2023-03-21T16:56:52.185Z,8.78
2023-03-21T17:00:50.170Z,8.65
2023-03-21T17:04:48.243Z,8.58
2023-03-21T17:08:46.292Z,8.53
2023-03-21T17:12:44.121Z,8.50
2023-03-21T17:16:42.202Z,8.45
2023-03-21T17:20:48.260Z,8.40
2023-03-21T17:24:46.225Z,8.36
2023-03-21T17:28:44.089Z,8.30
2023-03-21T17:32:42.159Z,8.26
2023-03-21T17:36:49.108Z,8.21
2023-03-21T17:40:48.476Z,8.18
2023-03-21T17:44:47.113Z,8.14
2023-03-21T17:48:45.049Z,8.09
2023-03-21T17:52:44.156Z,8.03
2023-03-21T17:56:47.081Z,7.98
2023-03-21T18:00:45.137Z,7.90
2023-03-21T18:04:43.076Z,7.81
2023-03-21T18:08:41.108Z,7.73
2023-03-21T18:12:39.051Z,7.66
2023-03-21T18:16:38.141Z,7.61
2023-03-21T18:20:54.673Z,7.54
2023-03-21T18:24:54.062Z,7.52
2023-03-21T18:29:36.797Z,7.50
2023-03-21T18:33:12.080Z,7.53
2023-03-21T18:37:12.678Z,7.56
2023-03-21T18:41:11.109Z,7.57
2023-03-21T18:45:09.088Z,7.57
2023-03-21T18:49:35.889Z,7.58
2023-03-21T18:53:25.114Z,7.59
2023-03-21T18:57:39.533Z,7.59
2023-03-21T19:01:37.381Z,7.63
2023-03-21T19:05:38.029Z,7.65
2023-03-21T19:09:58.204Z,7.67
2023-03-21T19:13:54.123Z,7.70
2023-03-21T19:22:14.992Z,7.76
2023-03-21T19:26:13.050Z,7.77
2023-03-21T19:30:15.724Z,7.77
2023-03-21T19:34:13.973Z,7.77
2023-03-21T19:38:12.102Z,7.77
2023-03-21T19:42:16.965Z,7.77
2023-03-21T19:46:15.014Z,7.76
2023-03-21T19:50:47.824Z,7.74
2023-03-21T19:54:30.998Z,7.74
2023-03-21T19:58:28.932Z,7.73
2023-03-21T20:02:35.604Z,7.71
2023-03-21T20:06:34.868Z,7.69
2023-03-21T20:10:33.926Z,7.65
2023-03-21T20:14:33.037Z,7.62
2023-03-21T20:18:30.903Z,7.59
2023-03-21T20:22:58.872Z,7.55
2023-03-21T20:26:49.011Z,7.48
2023-03-21T20:30:46.934Z,7.40
2023-03-21T20:34:47.294Z,7.32
2023-03-21T20:38:46.111Z,7.21
2023-03-21T20:42:43.879Z,7.12
2023-03-21T20:46:41.977Z,7.00
2023-03-21T20:50:41.350Z,6.90
2023-03-21T20:54:39.893Z,6.78
2023-03-21T20:59:01.608Z,6.66
2023-03-21T21:02:56.901Z,6.56
2023-03-21T21:06:54.853Z,6.48
2023-03-21T21:11:42.789Z,6.43
2023-03-21T21:15:14.872Z,6.41
2023-03-21T21:19:12.845Z,6.40
2023-03-21T21:23:10.925Z,6.41
2023-03-21T21:27:08.846Z,6.43
2023-03-21T21:31:06.975Z,6.42
2023-03-21T21:35:04.825Z,6.41
2023-03-21T21:39:02.807Z,6.43
2023-03-21T21:43:00.965Z,6.45
2023-03-21T21:46:58.934Z,6.47
2023-03-21T21:50:58.877Z,6.47
2023-03-21T21:54:58.794Z,6.48
2023-03-21T21:58:59.847Z,6.49
2023-03-21T22:02:57.846Z,6.51
2023-03-21T22:06:57.073Z,6.51
2023-03-21T22:10:55.817Z,6.51
2023-03-21T22:14:53.698Z,6.51
2023-03-21T22:18:51.733Z,6.53
2023-03-21T22:22:50.690Z,6.54
2023-03-21T22:26:57.789Z,6.54
2023-03-21T22:30:56.822Z,6.57
2023-03-21T22:34:54.741Z,6.58
2023-03-21T22:38:52.739Z,6.60
2023-03-21T22:42:51.752Z,6.60
2023-03-21T22:46:49.718Z,6.62
2023-03-21T22:50:47.721Z,6.63
2023-03-21T22:54:45.688Z,6.64
2023-03-21T22:58:43.682Z,6.63
2023-03-21T23:02:44.048Z,6.61
2023-03-21T23:06:41.791Z,6.60
2023-03-21T23:10:39.892Z,6.60
2023-03-21T23:14:37.675Z,6.63
2023-03-21T23:18:35.652Z,6.64
2023-03-21T23:22:33.675Z,6.66
2023-03-21T23:26:33.605Z,6.66
2023-03-21T23:30:31.653Z,6.67
2023-03-21T23:34:29.617Z,6.69
2023-03-21T23:38:27.639Z,6.68
2023-03-21T23:42:25.618Z,6.68
2023-03-21T23:46:24.662Z,6.67
2023-03-21T23:50:23.596Z,6.67
2023-03-21T23:54:21.578Z,6.67
2023-03-21T23:58:21.601Z,6.66
